sensor_id;sensor_type;location;lat;lon;timestamp;pressure;altitude;pressure_sealevel;temperature;humidity
63568;BME280;49715;42.386;20.434;2022-12-29T00:02:16;98344.13;;;5.40;66.16
63568;BME280;49715;42.386;20.434;2022-12-29T00:04:42;98338.47;;;5.34;66.22
63568;BME280;49715;42.386;20.434;2022-12-29T00:07:09;98336.13;;;5.29;66.41
63568;BME280;49715;42.386;20.434;2022-12-29T00:09:36;98348.47;;;5.27;66.55
63568;BME280;49715;42.386;20.434;2022-12-29T00:12:04;98326.81;;;5.11;66.58
63568;BME280;49715;42.386;20.434;2022-12-29T00:14:30;98342.88;;;5.19;66.97
63568;BME280;49715;42.386;20.434;2022-12-29T00:17:15;98344.91;;;5.14;66.87
63568;BME280;49715;42.386;20.434;2022-12-29T00:19:41;98327.00;;;5.08;67.11
63568;BME280;49715;42.386;20.434;2022-12-29T00:22:26;98338.09;;;5.11;67.06
63568;BME280;49715;42.386;20.434;2022-12-29T00:25:12;98340.16;;;5.06;67.29
63568;BME280;49715;42.386;20.434;2022-12-29T00:27:57;98337.66;;;5.05;67.34
63568;BME280;49715;42.386;20.434;2022-12-29T00:30:43;98344.66;;;5.04;67.45
63568;BME280;49715;42.386;20.434;2022-12-29T00:33:35;98336.16;;;5.01;67.45
63568;BME280;49715;42.386;20.434;2022-12-29T00:36:39;98344.53;;;5.06;67.41
63568;BME280;49715;42.386;20.434;2022-12-29T00:39:12;98341.53;;;4.98;67.39
63568;BME280;49715;42.386;20.434;2022-12-29T00:42:07;98354.81;;;4.95;67.51
63568;BME280;49715;42.386;20.434;2022-12-29T00:44:52;98341.25;;;4.88;67.53
63568;BME280;49715;42.386;20.434;2022-12-29T00:47:18;98345.09;;;4.82;67.52
63568;BME280;49715;42.386;20.434;2022-12-29T00:49:45;98352.09;;;4.82;67.59
63568;BME280;49715;42.386;20.434;2022-12-29T00:52:12;98344.06;;;4.71;67.52
63568;BME280;49715;42.386;20.434;2022-12-29T00:54:40;98349.84;;;4.76;67.55
63568;BME280;49715;42.386;20.434;2022-12-29T00:57:08;98355.06;;;4.76;67.36
63568;BME280;49715;42.386;20.434;2022-12-29T00:59:36;98355.06;;;4.76;67.42
63568;BME280;49715;42.386;20.434;2022-12-29T01:02:03;98350.78;;;4.75;67.48
63568;BME280;49715;42.386;20.434;2022-12-29T01:04:29;98354.13;;;4.77;67.38
63568;BME280;49715;42.386;20.434;2022-12-29T01:06:55;98344.53;;;4.77;67.63
63568;BME280;49715;42.386;20.434;2022-12-29T01:09:22;98329.69;;;4.78;67.36
63568;BME280;49715;42.386;20.434;2022-12-29T01:12:08;98346.88;;;4.82;67.37
63568;BME280;49715;42.386;20.434;2022-12-29T01:14:36;98345.09;;;4.82;67.36
63568;BME280;49715;42.386;20.434;2022-12-29T01:17:04;98346.69;;;4.85;67.49
63568;BME280;49715;42.386;20.434;2022-12-29T01:19:30;98346.22;;;4.78;68.29
63568;BME280;49715;42.386;20.434;2022-12-29T01:21:56;98345.38;;;4.78;67.62
63568;BME280;49715;42.386;20.434;2022-12-29T01:24:23;98345.47;;;4.76;67.56
63568;BME280;49715;42.386;20.434;2022-12-29T01:26:50;98348.75;;;4.80;67.80
63568;BME280;49715;42.386;20.434;2022-12-29T01:29:17;98351.16;;;4.83;67.76
63568;BME280;49715;42.386;20.434;2022-12-29T01:31:45;98347.69;;;4.82;67.59
63568;BME280;49715;42.386;20.434;2022-12-29T01:34:12;98349.41;;;4.83;67.97
63568;BME280;49715;42.386;20.434;2022-12-29T01:36:39;98326.34;;;4.76;67.57
63568;BME280;49715;42.386;20.434;2022-12-29T01:39:05;98331.56;;;4.76;67.70
63568;BME280;49715;42.386;20.434;2022-12-29T01:41:31;98335.13;;;4.75;67.83
63568;BME280;49715;42.386;20.434;2022-12-29T01:43:59;98344.63;;;4.76;67.86
63568;BME280;49715;42.386;20.434;2022-12-29T01:46:36;98338.75;;;4.72;67.87
63568;BME280;49715;42.386;20.434;2022-12-29T01:51:41;98333.63;;;4.71;68.22
63568;BME280;49715;42.386;20.434;2022-12-29T01:54:35;98329.41;;;4.68;68.35
63568;BME280;49715;42.386;20.434;2022-12-29T01:57:01;98333.53;;;4.72;68.37
63568;BME280;49715;42.386;20.434;2022-12-29T01:59:33;98333.34;;;4.75;68.41
63568;BME280;49715;42.386;20.434;2022-12-29T02:02:01;98324.75;;;4.73;68.62
63568;BME280;49715;42.386;20.434;2022-12-29T02:04:30;98315.06;;;4.75;68.55
63568;BME280;49715;42.386;20.434;2022-12-29T02:07:04;98319.06;;;4.81;68.40
63568;BME280;49715;42.386;20.434;2022-12-29T02:09:32;98313.94;;;4.79;68.50
63568;BME280;49715;42.386;20.434;2022-12-29T02:11:59;98306.19;;;4.78;68.70
63568;BME280;49715;42.386;20.434;2022-12-29T02:14:26;98314.41;;;4.86;68.59
63568;BME280;49715;42.386;20.434;2022-12-29T02:23:13;98317.59;;;4.91;68.40
63568;BME280;49715;42.386;20.434;2022-12-29T02:38:59;98307.50;;;4.99;68.71
63568;BME280;49715;42.386;20.434;2022-12-29T02:47:35;98314.41;;;5.00;68.94
63568;BME280;49715;42.386;20.434;2022-12-29T02:52:51;98307.31;;;5.02;68.98
63568;BME280;49715;42.386;20.434;2022-12-29T02:55:18;98294.91;;;4.91;68.70
63568;BME280;49715;42.386;20.434;2022-12-29T02:57:44;98300.34;;;4.88;68.54
63568;BME280;49715;42.386;20.434;2022-12-29T03:00:16;98298.56;;;4.89;68.50
63568;BME280;49715;42.386;20.434;2022-12-29T03:08:23;98313.47;;;4.87;68.94
63568;BME280;49715;42.386;20.434;2022-12-29T03:11:08;98304.25;;;4.81;68.92
63568;BME280;49715;42.386;20.434;2022-12-29T03:16:59;98309.47;;;4.81;68.86
63568;BME280;49715;42.386;20.434;2022-12-29T03:19:36;98304.44;;;4.78;68.83
63568;BME280;49715;42.386;20.434;2022-12-29T03:22:06;98300.91;;;4.79;69.11
63568;BME280;49715;42.386;20.434;2022-12-29T03:25:20;98305.47;;;4.76;69.18
63568;BME280;49715;42.386;20.434;2022-12-29T03:27:51;98305.19;;;4.80;69.24
63568;BME280;49715;42.386;20.434;2022-12-29T03:30:20;98295.84;;;4.76;69.30
63568;BME280;49715;42.386;20.434;2022-12-29T03:33:00;98307.78;;;4.80;69.24
63568;BME280;49715;42.386;20.434;2022-12-29T03:35:34;98305.91;;;4.82;69.15
63568;BME280;49715;42.386;20.434;2022-12-29T03:40:38;98303.69;;;4.76;69.07
63568;BME280;49715;42.386;20.434;2022-12-29T03:43:07;98310.00;;;4.72;69.38
63568;BME280;49715;42.386;20.434;2022-12-29T03:45:35;98307.50;;;4.71;69.62
63568;BME280;49715;42.386;20.434;2022-12-29T03:48:02;98304.63;;;4.75;69.58
63568;BME280;49715;42.386;20.434;2022-12-29T03:50:29;98288.13;;;4.75;69.45
63568;BME280;49715;42.386;20.434;2022-12-29T03:52:56;98297.78;;;4.73;69.34
63568;BME280;49715;42.386;20.434;2022-12-29T03:55:22;98297.91;;;4.71;69.24
63568;BME280;49715;42.386;20.434;2022-12-29T03:57:49;98302.56;;;4.66;69.07
63568;BME280;49715;42.386;20.434;2022-12-29T04:00:22;98308.16;;;4.60;68.98
63568;BME280;49715;42.386;20.434;2022-12-29T04:02:50;98292.47;;;4.46;69.33
63568;BME280;49715;42.386;20.434;2022-12-29T04:05:22;98299.75;;;4.41;69.63
63568;BME280;49715;42.386;20.434;2022-12-29T04:07:51;98293.97;;;4.35;69.32
63568;BME280;49715;42.386;20.434;2022-12-29T04:10:18;98308.31;;;4.43;69.52
63568;BME280;49715;42.386;20.434;2022-12-29T04:12:45;98300.00;;;4.36;69.46
63568;BME280;49715;42.386;20.434;2022-12-29T04:15:13;98301.50;;;4.40;69.50
63568;BME280;49715;42.386;20.434;2022-12-29T04:17:40;98298.59;;;4.30;69.36
63568;BME280;49715;42.386;20.434;2022-12-29T04:20:07;98313.44;;;4.30;69.38
63568;BME280;49715;42.386;20.434;2022-12-29T04:23:01;98317.41;;;4.21;69.15
63568;BME280;49715;42.386;20.434;2022-12-29T04:25:28;98309.94;;;4.15;69.44
63568;BME280;49715;42.386;20.434;2022-12-29T04:27:56;98313.19;;;4.19;69.55
63568;BME280;49715;42.386;20.434;2022-12-29T04:30:46;98324.72;;;4.14;69.66
63568;BME280;49715;42.386;20.434;2022-12-29T04:33:35;98327.53;;;4.11;69.69
63568;BME280;49715;42.386;20.434;2022-12-29T04:36:02;98330.97;;;4.12;69.67
63568;BME280;49715;42.386;20.434;2022-12-29T04:38:29;98315.59;;;4.07;69.98
63568;BME280;49715;42.386;20.434;2022-12-29T04:40:59;98328.47;;;4.10;70.05
63568;BME280;49715;42.386;20.434;2022-12-29T04:43:27;98321.75;;;4.06;69.76
63568;BME280;49715;42.386;20.434;2022-12-29T04:46:12;98332.84;;;4.10;70.26
63568;BME280;49715;42.386;20.434;2022-12-29T04:48:52;98322.84;;;4.02;70.29
63568;BME280;49715;42.386;20.434;2022-12-29T04:51:31;98334.69;;;4.08;70.28
63568;BME280;49715;42.386;20.434;2022-12-29T04:53:58;98332.75;;;4.11;70.03
63568;BME280;49715;42.386;20.434;2022-12-29T04:56:26;98330.16;;;4.11;70.39
63568;BME280;49715;42.386;20.434;2022-12-29T04:58:52;98337.50;;;4.19;70.27
63568;BME280;49715;42.386;20.434;2022-12-29T05:01:20;98339.03;;;4.23;70.09
63568;BME280;49715;42.386;20.434;2022-12-29T05:03:50;98334.75;;;4.22;70.10
63568;BME280;49715;42.386;20.434;2022-12-29T05:06:17;98334.63;;;4.24;70.01
63568;BME280;49715;42.386;20.434;2022-12-29T05:08:44;98336.03;;;4.29;69.93
63568;BME280;49715;42.386;20.434;2022-12-29T05:11:11;98334.00;;;4.20;69.70
63568;BME280;49715;42.386;20.434;2022-12-29T05:13:37;98355.81;;;4.33;69.71
63568;BME280;49715;42.386;20.434;2022-12-29T05:16:04;98349.03;;;4.31;69.57
63568;BME280;49715;42.386;20.434;2022-12-29T05:18:31;98354.25;;;4.31;69.45
63568;BME280;49715;42.386;20.434;2022-12-29T05:20:58;98347.41;;;4.28;69.25
63568;BME280;49715;42.386;20.434;2022-12-29T05:23:25;98356.03;;;4.30;69.56
63568;BME280;49715;42.386;20.434;2022-12-29T05:25:56;98357.59;;;4.33;69.64
63568;BME280;49715;42.386;20.434;2022-12-29T05:28:43;98350.53;;;4.35;69.63
63568;BME280;49715;42.386;20.434;2022-12-29T05:31:17;98348.94;;;4.32;69.70
63568;BME280;49715;42.386;20.434;2022-12-29T05:33:43;98352.31;;;4.34;69.87
63568;BME280;49715;42.386;20.434;2022-12-29T05:36:10;98352.88;;;4.39;69.85
63568;BME280;49715;42.386;20.434;2022-12-29T05:38:41;98355.41;;;4.41;69.74
63568;BME280;49715;42.386;20.434;2022-12-29T05:41:08;98340.66;;;4.40;69.79
63568;BME280;49715;42.386;20.434;2022-12-29T05:43:53;98351.75;;;4.44;70.01
63568;BME280;49715;42.386;20.434;2022-12-29T05:46:48;98350.75;;;4.46;69.69
63568;BME280;49715;42.386;20.434;2022-12-29T05:49:34;98360.63;;;4.41;69.82
63568;BME280;49715;42.386;20.434;2022-12-29T05:52:30;98360.63;;;4.41;69.82
63568;BME280;49715;42.386;20.434;2022-12-29T05:54:56;98340.38;;;4.30;69.97
63568;BME280;49715;42.386;20.434;2022-12-29T05:57:25;98356.31;;;4.40;70.03
63568;BME280;49715;42.386;20.434;2022-12-29T06:00:03;98360.88;;;4.36;69.81
63568;BME280;49715;42.386;20.434;2022-12-29T06:02:40;98361.13;;;4.32;69.92
63568;BME280;49715;42.386;20.434;2022-12-29T06:05:09;98365.34;;;4.34;70.10
63568;BME280;49715;42.386;20.434;2022-12-29T06:07:37;98362.91;;;4.31;69.83
63568;BME280;49715;42.386;20.434;2022-12-29T06:10:05;98364.75;;;4.29;69.90
63568;BME280;49715;42.386;20.434;2022-12-29T06:12:39;98368.91;;;4.18;69.98
63568;BME280;49715;42.386;20.434;2022-12-29T06:15:06;98374.97;;;4.18;70.09
63568;BME280;49715;42.386;20.434;2022-12-29T06:17:33;98356.66;;;4.04;69.89
63568;BME280;49715;42.386;20.434;2022-12-29T06:19:59;98373.00;;;4.07;69.94
63568;BME280;49715;42.386;20.434;2022-12-29T06:22:26;98384.25;;;4.08;70.05
63568;BME280;49715;42.386;20.434;2022-12-29T06:24:53;98374.34;;;3.99;69.89
63568;BME280;49715;42.386;20.434;2022-12-29T06:27:19;98374.69;;;3.93;69.94
63568;BME280;49715;42.386;20.434;2022-12-29T06:29:52;98391.28;;;3.92;69.66
63568;BME280;49715;42.386;20.434;2022-12-29T06:32:19;98397.00;;;3.82;70.13
63568;BME280;49715;42.386;20.434;2022-12-29T06:34:50;98395.13;;;3.84;70.39
63568;BME280;49715;42.386;20.434;2022-12-29T06:37:16;98387.41;;;3.83;70.44
63568;BME280;49715;42.386;20.434;2022-12-29T06:39:44;98388.97;;;3.85;70.65
63568;BME280;49715;42.386;20.434;2022-12-29T06:42:12;98380.50;;;3.82;70.45
63568;BME280;49715;42.386;20.434;2022-12-29T06:44:41;98388.41;;;3.80;70.47
63568;BME280;49715;42.386;20.434;2022-12-29T06:47:09;98391.53;;;3.87;70.45
63568;BME280;49715;42.386;20.434;2022-12-29T06:49:36;98402.69;;;3.89;70.43
63568;BME280;49715;42.386;20.434;2022-12-29T06:52:03;98399.94;;;3.92;70.31
63568;BME280;49715;42.386;20.434;2022-12-29T06:54:31;98401.63;;;3.93;70.02
63568;BME280;49715;42.386;20.434;2022-12-29T06:56:57;98398.91;;;3.95;70.16
63568;BME280;49715;42.386;20.434;2022-12-29T06:59:24;98407.56;;;3.95;70.12
63568;BME280;49715;42.386;20.434;2022-12-29T07:01:52;98403.28;;;3.94;70.26
63568;BME280;49715;42.386;20.434;2022-12-29T07:04:21;98409.44;;;3.93;70.22
63568;BME280;49715;42.386;20.434;2022-12-29T07:06:48;98406.09;;;3.91;70.18
63568;BME280;49715;42.386;20.434;2022-12-29T07:09:20;98424.16;;;3.94;70.34
63568;BME280;49715;42.386;20.434;2022-12-29T07:12:13;98388.34;;;3.82;70.35
63568;BME280;49715;42.386;20.434;2022-12-29T07:15:01;98416.91;;;3.99;70.33
63568;BME280;49715;42.386;20.434;2022-12-29T07:17:41;98416.91;;;3.99;70.41
63568;BME280;49715;42.386;20.434;2022-12-29T07:20:12;98418.69;;;3.99;70.43
63568;BME280;49715;42.386;20.434;2022-12-29T07:22:43;98417.75;;;4.00;70.52
63568;BME280;49715;42.386;20.434;2022-12-29T07:25:13;98428.59;;;4.08;70.65
63568;BME280;49715;42.386;20.434;2022-12-29T07:27:40;98422.13;;;4.15;70.45
63568;BME280;49715;42.386;20.434;2022-12-29T07:30:07;98427.94;;;4.20;70.37
63568;BME280;49715;42.386;20.434;2022-12-29T07:32:35;98434.47;;;4.27;70.21
63568;BME280;49715;42.386;20.434;2022-12-29T07:35:06;98432.03;;;4.24;70.01
63568;BME280;49715;42.386;20.434;2022-12-29T07:37:34;98423.94;;;4.29;70.25
63568;BME280;49715;42.386;20.434;2022-12-29T07:40:02;98435.47;;;4.41;70.05
63568;BME280;49715;42.386;20.434;2022-12-29T07:42:31;98434.69;;;4.38;70.00
63568;BME280;49715;42.386;20.434;2022-12-29T07:45:01;98433.13;;;4.36;70.04
63568;BME280;49715;42.386;20.434;2022-12-29T07:47:57;98442.38;;;4.42;70.05
63568;BME280;49715;42.386;20.434;2022-12-29T07:50:24;98428.84;;;4.35;70.08
63568;BME280;49715;42.386;20.434;2022-12-29T07:52:51;98438.75;;;4.44;70.24
63568;BME280;49715;42.386;20.434;2022-12-29T07:55:18;98445.19;;;4.53;70.20
63568;BME280;49715;42.386;20.434;2022-12-29T07:57:45;98457.00;;;4.60;70.37
63568;BME280;49715;42.386;20.434;2022-12-29T08:00:13;98453.19;;;4.65;70.19
63568;BME280;49715;42.386;20.434;2022-12-29T08:02:40;98451.53;;;4.79;70.06
63568;BME280;49715;42.386;20.434;2022-12-29T08:05:12;98447.53;;;4.87;69.96
63568;BME280;49715;42.386;20.434;2022-12-29T08:07:42;98445.69;;;4.89;69.71
63568;BME280;49715;42.386;20.434;2022-12-29T08:10:14;98444.31;;;4.98;69.52
63568;BME280;49715;42.386;20.434;2022-12-29T08:12:41;98455.13;;;5.06;69.54
63568;BME280;49715;42.386;20.434;2022-12-29T08:15:12;98445.06;;;5.14;69.40
63568;BME280;49715;42.386;20.434;2022-12-29T08:17:43;98451.53;;;5.23;69.53
63568;BME280;49715;42.386;20.434;2022-12-29T08:20:10;98452.53;;;5.21;70.11
63568;BME280;49715;42.386;20.434;2022-12-29T08:22:37;98451.03;;;5.31;69.67
63568;BME280;49715;42.386;20.434;2022-12-29T08:25:04;98459.16;;;5.40;69.40
63568;BME280;49715;42.386;20.434;2022-12-29T08:27:31;98459.00;;;5.43;69.34
63568;BME280;49715;42.386;20.434;2022-12-29T08:29:58;98438.53;;;5.36;69.38
63568;BME280;49715;42.386;20.434;2022-12-29T08:32:29;98440.31;;;5.50;69.29
63568;BME280;49715;42.386;20.434;2022-12-29T08:34:56;98461.50;;;5.74;69.19
63568;BME280;49715;42.386;20.434;2022-12-29T08:37:23;98431.44;;;5.66;68.95
63568;BME280;49715;42.386;20.434;2022-12-29T08:39:50;98456.97;;;5.90;68.83
63568;BME280;49715;42.386;20.434;2022-12-29T08:42:16;98455.81;;;5.96;68.67
63568;BME280;49715;42.386;20.434;2022-12-29T08:44:43;98464.38;;;6.12;68.70
63568;BME280;49715;42.386;20.434;2022-12-29T08:47:10;98457.91;;;6.17;68.63
63568;BME280;49715;42.386;20.434;2022-12-29T08:49:37;98462.00;;;6.22;68.58
63568;BME280;49715;42.386;20.434;2022-12-29T08:52:07;98446.19;;;6.23;68.40
63568;BME280;49715;42.386;20.434;2022-12-29T08:54:43;98462.50;;;6.41;68.19
63568;BME280;49715;42.386;20.434;2022-12-29T08:57:35;98450.78;;;6.47;68.25
63568;BME280;49715;42.386;20.434;2022-12-29T09:00:12;98456.91;;;6.60;68.05
63568;BME280;49715;42.386;20.434;2022-12-29T09:02:41;98452.81;;;6.68;68.05
63568;BME280;49715;42.386;20.434;2022-12-29T09:05:08;98456.72;;;6.76;67.88
63568;BME280;49715;42.386;20.434;2022-12-29T09:07:39;98451.06;;;6.82;67.99
63568;BME280;49715;42.386;20.434;2022-12-29T09:10:06;98435.47;;;6.80;68.24
63568;BME280;49715;42.386;20.434;2022-12-29T09:12:33;98433.06;;;6.90;67.82
63568;BME280;49715;42.386;20.434;2022-12-29T09:15:04;98450.38;;;7.05;67.85
63568;BME280;49715;42.386;20.434;2022-12-29T09:17:33;98453.84;;;7.06;67.65
63568;BME280;49715;42.386;20.434;2022-12-29T09:20:16;98445.34;;;7.15;68.02
63568;BME280;49715;42.386;20.434;2022-12-29T09:22:45;98447.34;;;7.24;68.00
63568;BME280;49715;42.386;20.434;2022-12-29T09:25:13;98430.22;;;7.31;67.70
63568;BME280;49715;42.386;20.434;2022-12-29T09:27:40;98435.59;;;7.42;67.68
63568;BME280;49715;42.386;20.434;2022-12-29T09:30:09;98433.50;;;7.47;67.67
63568;BME280;49715;42.386;20.434;2022-12-29T09:32:39;98421.41;;;7.58;67.50
63568;BME280;49715;42.386;20.434;2022-12-29T09:35:06;98424.00;;;7.70;67.51
63568;BME280;49715;42.386;20.434;2022-12-29T09:37:35;98427.13;;;7.88;67.40
63568;BME280;49715;42.386;20.434;2022-12-29T09:40:05;98406.81;;;7.90;67.36
63568;BME280;49715;42.386;20.434;2022-12-29T09:42:50;98426.84;;;8.04;66.86
63568;BME280;49715;42.386;20.434;2022-12-29T09:45:29;98415.06;;;8.10;67.07
63568;BME280;49715;42.386;20.434;2022-12-29T09:47:58;98425.53;;;8.22;66.97
63568;BME280;49715;42.386;20.434;2022-12-29T09:50:33;98420.41;;;8.21;66.73
63568;BME280;49715;42.386;20.434;2022-12-29T09:53:38;98420.16;;;8.24;66.69
63568;BME280;49715;42.386;20.434;2022-12-29T09:56:13;98405.13;;;8.26;66.53
63568;BME280;49715;42.386;20.434;2022-12-29T09:58:58;98409.09;;;8.32;66.48
63568;BME280;49715;42.386;20.434;2022-12-29T10:01:34;98406.16;;;8.36;66.67
63568;BME280;49715;42.386;20.434;2022-12-29T10:04:03;98409.50;;;8.38;66.44
63568;BME280;49715;42.386;20.434;2022-12-29T10:06:39;98401.34;;;8.54;66.50
63568;BME280;49715;42.386;20.434;2022-12-29T10:09:17;98403.06;;;8.66;66.26
63568;BME280;49715;42.386;20.434;2022-12-29T10:20:54;98377.75;;;8.88;65.47
63568;BME280;49715;42.386;20.434;2022-12-29T10:23:38;98372.16;;;8.92;65.29
63568;BME280;49715;42.386;20.434;2022-12-29T10:26:21;98374.22;;;9.00;65.21
63568;BME280;49715;42.386;20.434;2022-12-29T10:29:02;98369.56;;;9.03;65.05
63568;BME280;49715;42.386;20.434;2022-12-29T10:31:37;98359.75;;;9.17;64.86
63568;BME280;49715;42.386;20.434;2022-12-29T10:34:46;98346.97;;;9.23;64.75
63568;BME280;49715;42.386;20.434;2022-12-29T10:39:55;98358.56;;;9.54;64.13
63568;BME280;49715;42.386;20.434;2022-12-29T10:44:53;98347.16;;;9.76;63.62
63568;BME280;49715;42.386;20.434;2022-12-29T10:47:24;98342.22;;;9.83;63.55
63568;BME280;49715;42.386;20.434;2022-12-29T10:49:51;98340.03;;;9.99;63.38
63568;BME280;49715;42.386;20.434;2022-12-29T10:52:19;98336.13;;;10.15;63.11
63568;BME280;49715;42.386;20.434;2022-12-29T10:55:00;98332.06;;;10.22;62.45
63568;BME280;49715;42.386;20.434;2022-12-29T10:57:36;98335.75;;;10.30;62.23
63568;BME280;49715;42.386;20.434;2022-12-29T11:00:19;98326.31;;;10.28;61.67
63568;BME280;49715;42.386;20.434;2022-12-29T11:06:18;98316.41;;;10.41;61.33
63568;BME280;49715;42.386;20.434;2022-12-29T11:08:55;98306.47;;;10.45;61.22
63568;BME280;49715;42.386;20.434;2022-12-29T11:11:32;98301.06;;;10.46;61.27
63568;BME280;49715;42.386;20.434;2022-12-29T11:14:10;98298.03;;;10.51;60.87
63568;BME280;49715;42.386;20.434;2022-12-29T11:16:40;98305.72;;;10.64;60.78
63568;BME280;49715;42.386;20.434;2022-12-29T11:19:29;98311.47;;;10.69;59.50
63568;BME280;49715;42.386;20.434;2022-12-29T11:24:51;98297.28;;;10.91;59.78
63568;BME280;49715;42.386;20.434;2022-12-29T11:27:25;98303.44;;;11.01;59.80
63568;BME280;49715;42.386;20.434;2022-12-29T11:29:53;98306.84;;;11.13;59.60
63568;BME280;49715;42.386;20.434;2022-12-29T11:32:28;98300.66;;;11.33;59.25
63568;BME280;49715;42.386;20.434;2022-12-29T11:35:43;98296.09;;;11.45;58.61
63568;BME280;49715;42.386;20.434;2022-12-29T11:38:22;98286.41;;;11.55;58.86
63568;BME280;49715;42.386;20.434;2022-12-29T11:40:50;98281.56;;;11.70;58.74
63568;BME280;49715;42.386;20.434;2022-12-29T11:43:34;98273.94;;;11.76;57.99
63568;BME280;49715;42.386;20.434;2022-12-29T11:46:04;98271.78;;;12.01;58.12
63568;BME280;49715;42.386;20.434;2022-12-29T11:48:44;98268.56;;;12.07;57.45
63568;BME280;49715;42.386;20.434;2022-12-29T11:51:25;98253.28;;;12.10;57.16
63568;BME280;49715;42.386;20.434;2022-12-29T11:53:56;98262.13;;;12.29;57.38
63568;BME280;49715;42.386;20.434;2022-12-29T11:56:39;98264.91;;;12.47;56.92
63568;BME280;49715;42.386;20.434;2022-12-29T12:02:26;98256.09;;;12.66;56.40
63568;BME280;49715;42.386;20.434;2022-12-29T12:07:59;98241.88;;;12.76;56.84
63568;BME280;49715;42.386;20.434;2022-12-29T12:10:36;98239.06;;;12.78;56.16
63568;BME280;49715;42.386;20.434;2022-12-29T12:13:34;98245.03;;;12.89;55.39
63568;BME280;49715;42.386;20.434;2022-12-29T12:18:50;98237.72;;;13.01;55.68
63568;BME280;49715;42.386;20.434;2022-12-29T12:21:34;98236.41;;;13.15;55.67
63568;BME280;49715;42.386;20.434;2022-12-29T12:27:16;98220.41;;;12.79;55.90
63568;BME280;49715;42.386;20.434;2022-12-29T12:33:04;98213.97;;;12.54;55.98
63568;BME280;49715;42.386;20.434;2022-12-29T12:38:35;98209.16;;;12.30;56.25
63568;BME280;49715;42.386;20.434;2022-12-29T13:01:08;98206.47;;;11.24;57.39
63568;BME280;49715;42.386;20.434;2022-12-29T13:12:30;98192.34;;;11.54;57.27
63568;BME280;49715;42.386;20.434;2022-12-29T13:15:16;98194.19;;;11.82;57.13
63568;BME280;49715;42.386;20.434;2022-12-29T13:23:05;98194.63;;;12.44;56.92
63568;BME280;49715;42.386;20.434;2022-12-29T13:28:14;98195.91;;;12.77;56.69
63568;BME280;49715;42.386;20.434;2022-12-29T13:31:15;98191.41;;;12.87;56.01
63568;BME280;49715;42.386;20.434;2022-12-29T13:34:14;98194.13;;;13.05;56.12
63568;BME280;49715;42.386;20.434;2022-12-29T13:36:46;98175.97;;;13.10;56.53
63568;BME280;49715;42.386;20.434;2022-12-29T13:39:49;98194.13;;;13.33;55.67
63568;BME280;49715;42.386;20.434;2022-12-29T13:42:21;98202.47;;;13.38;55.93
63568;BME280;49715;42.386;20.434;2022-12-29T13:44:57;98177.56;;;13.31;55.63
63568;BME280;49715;42.386;20.434;2022-12-29T13:47:56;98169.06;;;13.27;54.63
63568;BME280;49715;42.386;20.434;2022-12-29T13:50:36;98196.88;;;13.59;55.45
63568;BME280;49715;42.386;20.434;2022-12-29T13:56:22;98197.63;;;13.69;55.07
63568;BME280;49715;42.386;20.434;2022-12-29T14:02:36;98172.00;;;13.52;54.69
63568;BME280;49715;42.386;20.434;2022-12-29T14:05:42;98176.88;;;13.64;54.57
63568;BME280;49715;42.386;20.434;2022-12-29T14:08:25;98170.31;;;13.69;55.23
63568;BME280;49715;42.386;20.434;2022-12-29T14:11:17;98200.19;;;13.79;55.21
63568;BME280;49715;42.386;20.434;2022-12-29T14:18:00;98191.34;;;13.70;54.58
63568;BME280;49715;42.386;20.434;2022-12-29T14:35:00;98195.03;;;13.42;55.50
63568;BME280;49715;42.386;20.434;2022-12-29T14:37:46;98149.03;;;12.97;55.79
63568;BME280;49715;42.386;20.434;2022-12-29T14:40:25;98159.44;;;12.81;56.01
63568;BME280;49715;42.386;20.434;2022-12-29T14:42:57;98131.13;;;12.54;55.84
63568;BME280;49715;42.386;20.434;2022-12-29T14:45:29;98148.44;;;12.38;55.67
63568;BME280;49715;42.386;20.434;2022-12-29T14:47:57;98154.75;;;12.28;55.69
63568;BME280;49715;42.386;20.434;2022-12-29T14:50:41;98154.25;;;12.05;55.53
63568;BME280;49715;42.386;20.434;2022-12-29T14:53:50;98189.47;;;11.96;55.92
63568;BME280;49715;42.386;20.434;2022-12-29T14:56:19;98190.13;;;11.78;56.14
63568;BME280;49715;42.386;20.434;2022-12-29T14:58:59;98206.66;;;11.71;56.37
63568;BME280;49715;42.386;20.434;2022-12-29T15:01:46;98163.53;;;11.22;56.33
63568;BME280;49715;42.386;20.434;2022-12-29T15:04:25;98207.47;;;11.42;56.45
63568;BME280;49715;42.386;20.434;2022-12-29T15:07:09;98208.13;;;11.25;56.66
63568;BME280;49715;42.386;20.434;2022-12-29T15:09:54;98209.06;;;11.04;56.97
63568;BME280;49715;42.386;20.434;2022-12-29T15:12:38;98187.59;;;10.78;57.05
63568;BME280;49715;42.386;20.434;2022-12-29T15:15:18;98215.78;;;10.88;57.17
63568;BME280;49715;42.386;20.434;2022-12-29T15:17:51;98218.28;;;10.79;57.44
63568;BME280;49715;42.386;20.434;2022-12-29T15:23:03;98216.06;;;10.54;57.81
63568;BME280;49715;42.386;20.434;2022-12-29T15:25:35;98196.72;;;10.23;57.74
63568;BME280;49715;42.386;20.434;2022-12-29T15:28:04;98202.47;;;10.28;57.87
63568;BME280;49715;42.386;20.434;2022-12-29T15:30:33;98217.69;;;10.24;57.83
63568;BME280;49715;42.386;20.434;2022-12-29T15:33:01;98215.75;;;10.05;58.14
63568;BME280;49715;42.386;20.434;2022-12-29T15:35:36;98207.88;;;9.94;58.36
63568;BME280;49715;42.386;20.434;2022-12-29T15:38:14;98224.78;;;9.92;58.50
63568;BME280;49715;42.386;20.434;2022-12-29T15:40:44;98224.34;;;9.87;58.51
63568;BME280;49715;42.386;20.434;2022-12-29T15:43:26;98222.13;;;9.71;58.77
63568;BME280;49715;42.386;20.434;2022-12-29T15:45:56;98207.47;;;9.57;58.94
63568;BME280;49715;42.386;20.434;2022-12-29T15:48:24;98225.84;;;9.68;59.17
63568;BME280;49715;42.386;20.434;2022-12-29T15:50:51;98219.16;;;9.64;59.07
63568;BME280;49715;42.386;20.434;2022-12-29T15:53:27;98211.63;;;9.60;59.28
63568;BME280;49715;42.386;20.434;2022-12-29T15:56:09;98213.44;;;9.59;59.34
63568;BME280;49715;42.386;20.434;2022-12-29T15:58:42;98201.53;;;9.44;59.31